createdAt,value
2022-09-12T00:01:13.147Z,6.70
2022-09-12T00:06:22.354Z,6.60
2022-09-12T00:08:49.733Z,6.38
2022-09-12T00:11:16.350Z,5.88
2022-09-12T00:13:43.024Z,6.65
2022-09-12T00:16:20.786Z,5.82
2022-09-12T00:18:47.462Z,6.22
2022-09-12T00:21:14.699Z,6.78
2022-09-12T00:23:41.431Z,6.50
2022-09-12T00:26:08.437Z,6.40
2022-09-12T00:28:35.869Z,6.53
2022-09-12T00:31:05.269Z,6.90
2022-09-12T00:33:32.194Z,6.20
2022-09-12T00:35:58.767Z,7.70
2022-09-12T00:38:25.353Z,7.25
2022-09-12T00:40:51.923Z,7.57
2022-09-12T00:43:30.595Z,6.63
2022-09-12T00:45:58.069Z,6.53
2022-09-12T00:48:29.228Z,6.55
2022-09-12T00:50:55.858Z,8.30
2022-09-12T00:53:22.680Z,6.53
2022-09-12T00:55:49.881Z,7.15
2022-09-12T00:58:24.938Z,7.05
2022-09-12T01:00:51.801Z,8.13
2022-09-12T01:03:19.828Z,7.28
2022-09-12T01:06:12.238Z,7.07
2022-09-12T01:08:38.951Z,6.30
2022-09-12T01:11:05.718Z,5.78
2022-09-12T01:13:34.053Z,6.95
2022-09-12T01:16:00.618Z,7.65
2022-09-12T01:19:12.886Z,7.60
2022-09-12T01:21:59.598Z,6.80
2022-09-12T01:24:26.370Z,8.63
2022-09-12T01:27:05.020Z,8.15
2022-09-12T01:29:53.981Z,8.30
2022-09-12T01:32:35.597Z,8.40
2022-09-12T01:35:08.365Z,5.35
2022-09-12T01:37:42.989Z,4.25
2022-09-12T01:40:18.253Z,4.93
2022-09-12T01:42:56.762Z,5.45
2022-09-12T01:45:33.838Z,6.15
2022-09-12T01:48:08.782Z,5.28
2022-09-12T01:53:07.051Z,4.65
2022-09-12T01:55:40.402Z,4.25
2022-09-12T01:58:13.824Z,5.25
2022-09-12T02:01:01.014Z,4.97
2022-09-12T02:03:58.849Z,5.28
2022-09-12T02:06:49.775Z,5.05
2022-09-12T02:09:46.451Z,5.03
2022-09-12T02:12:14.395Z,7.70
2022-09-12T02:14:43.147Z,5.20
2022-09-12T02:17:21.098Z,5.22
2022-09-12T02:19:51.425Z,7.90
2022-09-12T02:22:19.715Z,7.75
2022-09-12T02:24:47.968Z,7.25
2022-09-12T02:27:16.354Z,7.22
2022-09-12T02:29:44.691Z,7.70
2022-09-12T02:32:30.619Z,7.55
2022-09-12T02:35:07.372Z,7.30
2022-09-12T02:37:38.248Z,8.93
2022-09-12T02:40:07.016Z,9.52
2022-09-12T02:42:33.689Z,7.72
2022-09-12T02:45:00.267Z,7.60
2022-09-12T02:47:33.690Z,6.82
2022-09-12T02:50:00.432Z,6.70
2022-09-12T02:52:27.819Z,9.30
2022-09-12T02:54:54.733Z,8.05
2022-09-12T02:57:23.244Z,7.68
2022-09-12T02:59:50.725Z,8.00
2022-09-12T03:02:35.410Z,7.05
2022-09-12T03:05:13.173Z,8.32
2022-09-12T03:07:58.654Z,7.88
2022-09-12T03:10:32.773Z,7.65
2022-09-12T03:13:17.548Z,7.43
2022-09-12T03:16:04.476Z,6.32
2022-09-12T03:19:00.598Z,8.68
2022-09-12T03:21:34.018Z,7.60
2022-09-12T03:24:15.739Z,7.50
2022-09-12T03:26:49.844Z,7.28
2022-09-12T03:29:16.509Z,8.23
2022-09-12T03:31:54.630Z,8.02
2022-09-12T03:34:21.740Z,7.75
2022-09-12T03:36:48.802Z,7.05
2022-09-12T03:39:15.630Z,6.07
2022-09-12T03:41:42.230Z,6.43
2022-09-12T03:44:08.788Z,6.63
2022-09-12T03:46:35.460Z,6.97
2022-09-12T03:49:02.250Z,6.65
2022-09-12T03:51:28.967Z,6.68
2022-09-12T03:53:55.734Z,5.75
2022-09-12T03:56:22.499Z,7.07
2022-09-12T03:58:49.064Z,6.95
2022-09-12T04:01:17.382Z,7.50
2022-09-12T04:03:44.907Z,6.80
2022-09-12T04:06:12.304Z,7.07
2022-09-12T04:08:38.988Z,6.47
2022-09-12T04:11:06.655Z,7.03
2022-09-12T04:13:33.322Z,6.75
2022-09-12T04:15:59.999Z,6.53
2022-09-12T04:18:26.738Z,5.80
2022-09-12T04:20:53.372Z,5.72
2022-09-12T04:23:20.009Z,5.22
2022-09-12T04:25:54.858Z,6.35
2022-09-12T04:28:24.856Z,6.75
2022-09-12T04:30:51.552Z,6.93
2022-09-12T04:33:18.555Z,7.28
2022-09-12T04:35:45.492Z,6.78
2022-09-12T04:38:12.352Z,6.65
2022-09-12T04:40:38.947Z,6.28
2022-09-12T04:43:09.229Z,6.78
2022-09-12T04:45:37.931Z,6.65
2022-09-12T04:48:04.636Z,8.32
2022-09-12T04:50:31.249Z,8.70
2022-09-12T04:52:57.854Z,10.52
2022-09-12T04:55:25.607Z,10.57
2022-09-12T04:57:53.033Z,10.80
2022-09-12T05:00:19.702Z,9.45
2022-09-12T05:02:46.524Z,10.52
2022-09-12T05:05:13.176Z,10.13
2022-09-12T05:07:40.171Z,7.93
2022-09-12T05:10:07.290Z,8.00
2022-09-12T05:12:33.967Z,8.25
2022-09-12T05:15:00.696Z,8.00
2022-09-12T05:17:29.577Z,8.07
2022-09-12T05:19:56.122Z,7.75
2022-09-12T05:22:22.902Z,7.30
2022-09-12T05:24:58.248Z,6.90
2022-09-12T05:27:24.864Z,7.30
2022-09-12T05:29:51.572Z,7.68
2022-09-12T05:32:18.141Z,6.55
2022-09-12T05:34:44.930Z,8.02
2022-09-12T05:37:11.887Z,7.10
2022-09-12T05:39:38.511Z,6.95
2022-09-12T05:42:06.156Z,8.25
2022-09-12T05:44:33.376Z,8.00
2022-09-12T05:47:00.005Z,8.93
2022-09-12T05:49:26.638Z,7.90
2022-09-12T05:51:53.310Z,7.88
2022-09-12T05:54:20.755Z,7.50
2022-09-12T05:56:47.474Z,7.70
2022-09-12T05:59:16.257Z,7.20
2022-09-12T06:01:43.138Z,8.15
2022-09-12T06:04:09.936Z,7.45
2022-09-12T06:06:45.105Z,7.68
2022-09-12T06:09:13.014Z,7.78
2022-09-12T06:11:42.767Z,7.90
2022-09-12T06:14:16.907Z,6.60
2022-09-12T06:16:43.667Z,6.47
2022-09-12T06:19:18.169Z,6.50
2022-09-12T06:21:45.400Z,6.80
2022-09-12T06:24:12.014Z,7.68
2022-09-12T06:26:38.652Z,6.63
2022-09-12T06:29:05.241Z,7.10
2022-09-12T06:31:33.976Z,6.47
2022-09-12T06:34:01.851Z,6.95
2022-09-12T06:36:30.246Z,6.85
2022-09-12T06:39:01.141Z,7.20
2022-09-12T06:41:28.652Z,6.70
2022-09-12T06:43:55.373Z,7.78
2022-09-12T06:46:22.062Z,7.03
2022-09-12T06:48:48.816Z,7.60
2022-09-12T06:51:16.581Z,6.57
2022-09-12T06:53:44.311Z,7.25
2022-09-12T06:56:21.891Z,7.25
2022-09-12T06:58:49.393Z,7.95
2022-09-12T07:01:23.217Z,7.95
2022-09-12T07:03:51.925Z,7.28
2022-09-12T07:06:20.213Z,7.13
2022-09-12T07:08:47.031Z,6.53
2022-09-12T07:11:15.161Z,8.50
2022-09-12T07:13:42.255Z,8.25
2022-09-12T07:16:08.953Z,7.82
2022-09-12T07:18:35.826Z,8.30
2022-09-12T07:21:02.759Z,7.53
2022-09-12T07:23:32.586Z,6.90
2022-09-12T07:25:59.966Z,6.60
2022-09-12T07:28:32.006Z,5.50
2022-09-12T07:30:59.272Z,6.07
2022-09-12T07:33:28.991Z,6.18
2022-09-12T07:35:55.565Z,5.35
2022-09-12T07:38:22.312Z,5.47
2022-09-12T07:40:49.306Z,5.72
2022-09-12T07:43:16.013Z,5.47
2022-09-12T07:45:43.442Z,5.38
2022-09-12T07:48:10.076Z,5.50
2022-09-12T07:50:36.817Z,6.20
2022-09-12T07:53:06.686Z,4.75
2022-09-12T07:55:33.254Z,5.47
2022-09-12T07:57:59.879Z,4.70
2022-09-12T08:00:27.308Z,4.45
2022-09-12T08:02:54.305Z,3.78
2022-09-12T08:05:21.016Z,4.07
2022-09-12T08:07:49.796Z,4.40
2022-09-12T08:10:16.326Z,3.35
2022-09-12T08:12:42.880Z,3.28
2022-09-12T08:15:09.816Z,3.50
2022-09-12T08:17:36.460Z,4.20
2022-09-12T08:20:04.052Z,4.28
2022-09-12T08:22:31.380Z,4.15
2022-09-12T08:24:58.661Z,4.30
2022-09-12T08:27:25.270Z,4.47
2022-09-12T08:29:51.937Z,4.10
2022-09-12T08:32:18.505Z,3.70
2022-09-12T08:34:45.040Z,4.43
2022-09-12T08:37:11.791Z,3.63
2022-09-12T08:39:38.434Z,3.72
2022-09-12T08:42:05.954Z,3.40
2022-09-12T08:44:51.151Z,3.70
2022-09-12T08:47:27.707Z,4.13
2022-09-12T08:50:12.527Z,3.75
2022-09-12T08:52:39.172Z,4.10
2022-09-12T08:55:06.694Z,3.70
2022-09-12T08:57:33.551Z,4.00
2022-09-12T09:00:00.136Z,3.38
2022-09-12T09:02:32.801Z,3.88
2022-09-12T09:05:21.077Z,3.50
2022-09-12T09:08:34.064Z,3.33
2022-09-12T09:11:21.889Z,3.50
2022-09-12T09:14:37.856Z,3.58
2022-09-12T09:17:04.506Z,3.20
2022-09-12T09:19:33.152Z,3.20
2022-09-12T09:22:04.993Z,3.78
2022-09-12T09:24:44.846Z,3.25
2022-09-12T09:27:36.802Z,3.00
2022-09-12T09:30:00.891Z,3.15
2022-09-12T09:32:33.916Z,2.67
2022-09-12T09:35:02.648Z,2.83
2022-09-12T09:37:40.036Z,3.10
2022-09-12T09:40:15.848Z,2.92
2022-09-12T09:43:08.579Z,2.75
2022-09-12T09:45:35.134Z,3.33
2022-09-12T09:48:24.703Z,3.40
2022-09-12T09:50:51.561Z,3.50
2022-09-12T09:53:42.524Z,3.28
2022-09-12T09:56:16.983Z,3.20
2022-09-12T09:58:45.019Z,2.97
2022-09-12T10:01:16.312Z,3.15
2022-09-12T10:03:50.831Z,2.80
2022-09-12T10:06:20.807Z,3.25
2022-09-12T10:08:47.718Z,2.88
2022-09-12T10:11:22.846Z,2.88
2022-09-12T10:13:49.357Z,2.50
2022-09-12T10:16:20.158Z,3.13
2022-09-12T10:18:46.886Z,2.83
2022-09-12T10:21:28.074Z,2.95
2022-09-12T10:24:04.755Z,3.17
2022-09-12T10:26:36.329Z,2.55
2022-09-12T10:29:22.616Z,2.83
2022-09-12T10:31:59.283Z,2.30
2022-09-12T10:34:37.084Z,2.50
2022-09-12T10:37:05.930Z,2.58
2022-09-12T10:39:34.231Z,2.38
2022-09-12T10:42:02.235Z,2.47
2022-09-12T10:44:33.508Z,2.40
2022-09-12T10:47:01.061Z,2.88
2022-09-12T10:49:31.534Z,2.65
2022-09-12T10:52:12.998Z,2.70
2022-09-12T10:54:39.580Z,2.50
2022-09-12T10:57:39.496Z,2.88
2022-09-12T11:00:17.428Z,2.58
2022-09-12T11:03:02.690Z,2.60
2022-09-12T11:05:29.260Z,2.53
2022-09-12T11:08:03.720Z,2.83
2022-09-12T11:10:48.442Z,2.40
2022-09-12T11:13:57.848Z,2.42
2022-09-12T11:16:41.089Z,2.58
2022-09-12T11:19:27.921Z,2.53
2022-09-12T11:24:44.466Z,2.20
2022-09-12T11:27:20.692Z,2.30
2022-09-12T11:29:59.302Z,2.42
2022-09-12T11:32:37.946Z,2.33
2022-09-12T11:35:27.929Z,2.15
2022-09-12T11:38:25.559Z,2.30
2022-09-12T11:40:59.075Z,2.15
2022-09-12T11:43:29.654Z,2.33
2022-09-12T11:45:56.598Z,2.28
2022-09-12T11:48:38.672Z,2.42
2022-09-12T11:51:06.304Z,2.17
2022-09-12T11:53:36.834Z,2.13
2022-09-12T11:56:10.256Z,2.30
2022-09-12T11:58:37.517Z,2.28
2022-09-12T12:01:12.403Z,2.40
2022-09-12T12:03:43.931Z,2.30
2022-09-12T12:06:37.663Z,2.40
2022-09-12T12:09:04.467Z,2.40
2022-09-12T12:11:35.752Z,2.40
2022-09-12T12:14:15.710Z,2.50
2022-09-12T12:16:42.470Z,1.98
2022-09-12T12:19:15.256Z,2.05
2022-09-12T12:21:48.250Z,2.15
2022-09-12T12:24:24.265Z,2.30
2022-09-12T12:26:52.392Z,2.10
2022-09-12T12:29:19.507Z,1.98
2022-09-12T12:32:04.294Z,1.90
2022-09-12T12:34:40.772Z,1.60
2022-09-12T12:37:19.703Z,1.70
2022-09-12T12:39:53.992Z,2.10
2022-09-12T12:42:30.086Z,2.30
2022-09-12T12:45:05.297Z,2.30
2022-09-12T12:47:38.378Z,1.90
2022-09-12T12:50:10.834Z,2.20
2022-09-12T12:52:55.800Z,1.73
2022-09-12T12:55:29.390Z,2.03
2022-09-12T12:57:56.665Z,2.13
2022-09-12T13:00:26.589Z,1.83
2022-09-12T13:03:06.822Z,1.67
2022-09-12T13:05:52.844Z,2.10
2022-09-12T13:08:19.988Z,1.95
2022-09-12T13:10:58.087Z,1.73
2022-09-12T13:13:36.699Z,1.90
2022-09-12T13:16:03.473Z,1.85
2022-09-12T13:18:50.280Z,1.70
2022-09-12T13:21:18.070Z,1.70
2022-09-12T13:23:45.266Z,1.70
2022-09-12T13:26:33.168Z,1.73
2022-09-12T13:29:15.117Z,1.60
2022-09-12T13:31:46.614Z,1.83
2022-09-12T13:34:35.346Z,1.70
2022-09-12T13:37:31.334Z,2.05
2022-09-12T13:40:00.920Z,2.00
2022-09-12T13:42:33.378Z,1.77
2022-09-12T13:45:21.686Z,1.70
2022-09-12T13:48:16.821Z,1.58
2022-09-12T13:50:50.611Z,1.90
2022-09-12T13:53:18.198Z,1.58
2022-09-12T13:55:49.927Z,1.73
2022-09-12T13:58:25.029Z,1.63
2022-09-12T14:01:01.606Z,1.52
2022-09-12T14:03:54.679Z,1.77
2022-09-12T14:06:27.604Z,1.77
2022-09-12T14:08:58.609Z,2.00
2022-09-12T14:11:27.403Z,2.20
2022-09-12T14:13:55.969Z,2.05
2022-09-12T14:16:23.465Z,2.05
2022-09-12T14:18:51.662Z,2.30
2022-09-12T14:21:34.955Z,1.60
2022-09-12T14:24:02.501Z,1.50
2022-09-12T14:26:32.619Z,1.77
2022-09-12T14:28:59.228Z,2.25
2022-09-12T14:31:30.696Z,1.60
2022-09-12T14:34:15.064Z,2.00
2022-09-12T14:36:45.699Z,1.50
2022-09-12T14:39:23.622Z,1.50
2022-09-12T14:42:20.959Z,1.83
2022-09-12T14:44:59.258Z,1.83
2022-09-12T14:47:27.627Z,1.58
2022-09-12T14:49:54.241Z,1.48
2022-09-12T14:52:25.072Z,1.90
2022-09-12T14:55:16.541Z,1.60
2022-09-12T14:57:44.547Z,1.98
2022-09-12T15:00:14.364Z,1.92
2022-09-12T15:02:41.962Z,1.50
2022-09-12T15:05:08.604Z,1.83
2022-09-12T15:07:41.875Z,2.25
2022-09-12T15:10:22.905Z,2.20
2022-09-12T15:12:49.605Z,1.80
2022-09-12T15:15:20.758Z,1.80
2022-09-12T15:17:47.447Z,2.03
2022-09-12T15:20:14.190Z,2.20
2022-09-12T15:22:40.902Z,1.73
2022-09-12T15:25:07.785Z,1.50
2022-09-12T15:27:34.342Z,2.10
2022-09-12T15:30:01.020Z,2.10
2022-09-12T15:32:31.114Z,1.63
2022-09-12T15:34:57.741Z,1.60
2022-09-12T15:37:24.330Z,1.88
2022-09-12T15:39:51.192Z,1.83
2022-09-12T15:42:18.471Z,1.80
2022-09-12T15:44:45.065Z,1.98
2022-09-12T15:47:12.752Z,1.95
2022-09-12T15:49:42.444Z,1.90
2022-09-12T15:52:10.029Z,1.52
2022-09-12T15:54:36.619Z,1.52
2022-09-12T15:57:03.205Z,1.83
2022-09-12T15:59:31.103Z,1.70
2022-09-12T16:01:58.257Z,1.77
2022-09-12T16:04:26.507Z,1.70
2022-09-12T16:06:53.886Z,1.60
2022-09-12T16:09:20.570Z,1.60
2022-09-12T16:11:47.273Z,1.80
2022-09-12T16:14:17.410Z,1.50
2022-09-12T16:16:44.345Z,1.90
2022-09-12T16:19:11.647Z,1.88
2022-09-12T16:21:38.357Z,1.67
2022-09-12T16:24:05.065Z,1.52
2022-09-12T16:26:31.618Z,1.70
2022-09-12T16:28:58.623Z,2.00
2022-09-12T16:31:25.389Z,1.77
2022-09-12T16:33:52.928Z,1.90
2022-09-12T16:36:20.903Z,1.80
2022-09-12T16:38:49.027Z,2.10
2022-09-12T16:41:16.878Z,2.15
2022-09-12T16:43:43.477Z,2.28
2022-09-12T16:46:12.238Z,2.30
2022-09-12T16:48:50.968Z,2.58
2022-09-12T16:51:20.416Z,2.42
2022-09-12T16:53:47.308Z,2.50
2022-09-12T16:56:13.916Z,2.90
2022-09-12T16:58:42.239Z,2.45
2022-09-12T17:01:19.617Z,2.40
2022-09-12T17:03:46.397Z,3.08
2022-09-12T17:06:14.591Z,3.10
2022-09-12T17:08:43.284Z,2.70
2022-09-12T17:11:20.190Z,2.72
2022-09-12T17:14:11.733Z,2.30
2022-09-12T17:16:40.246Z,2.40
2022-09-12T17:19:06.975Z,2.55
2022-09-12T17:21:33.555Z,2.40
2022-09-12T17:24:00.311Z,2.33
2022-09-12T17:26:26.989Z,2.47
2022-09-12T17:28:53.588Z,3.30
2022-09-12T17:31:20.279Z,2.38
2022-09-12T17:33:47.031Z,2.35
2022-09-12T17:36:15.322Z,2.35
2022-09-12T17:38:42.502Z,2.95
2022-09-12T17:41:17.766Z,3.22
2022-09-12T17:43:46.455Z,2.83
2022-09-12T17:46:13.344Z,3.67
2022-09-12T17:48:39.959Z,2.95
2022-09-12T17:51:14.367Z,2.70
2022-09-12T17:53:41.757Z,3.13
2022-09-12T17:56:08.843Z,2.63
2022-09-12T17:58:35.585Z,3.20
2022-09-12T18:01:24.853Z,3.20
2022-09-12T18:04:00.171Z,4.05
2022-09-12T18:06:28.658Z,3.60
2022-09-12T18:08:55.248Z,2.92
2022-09-12T18:11:21.886Z,2.80
2022-09-12T18:13:48.586Z,2.40
2022-09-12T18:16:16.017Z,2.70
2022-09-12T18:18:42.670Z,2.75
2022-09-12T18:21:10.554Z,3.15
2022-09-12T18:23:37.166Z,3.30
2022-09-12T18:26:08.242Z,3.17
2022-09-12T18:28:35.693Z,2.90
2022-09-12T18:31:02.299Z,3.35
2022-09-12T18:33:29.065Z,2.85
2022-09-12T18:35:55.648Z,2.70
2022-09-12T18:38:22.315Z,3.00
2022-09-12T18:40:49.260Z,2.90
2022-09-12T18:43:15.852Z,3.30
2022-09-12T18:45:42.424Z,3.13
2022-09-12T18:48:09.448Z,3.47
2022-09-12T18:50:36.065Z,2.65
2022-09-12T18:53:02.761Z,3.20
2022-09-12T18:55:30.707Z,3.45
2022-09-12T18:57:57.408Z,2.78
2022-09-12T19:00:24.014Z,2.88
2022-09-12T19:02:50.603Z,4.60
2022-09-12T19:05:17.195Z,4.70
2022-09-12T19:07:43.755Z,4.43
2022-09-12T19:10:10.452Z,5.72
2022-09-12T19:12:37.001Z,5.50
2022-09-12T19:15:03.967Z,5.10
2022-09-12T19:17:30.544Z,5.15
2022-09-12T19:19:57.097Z,4.28
2022-09-12T19:22:23.720Z,4.32
2022-09-12T19:24:50.286Z,4.97
2022-09-12T19:27:16.902Z,6.50
2022-09-12T19:29:43.527Z,5.40
2022-09-12T19:32:10.176Z,4.30
2022-09-12T19:34:36.718Z,4.25
2022-09-12T19:37:04.106Z,4.57
2022-09-12T19:39:31.394Z,4.60
2022-09-12T19:41:58.041Z,5.03
2022-09-12T19:44:27.088Z,4.78
2022-09-12T19:46:53.686Z,5.82
2022-09-12T19:49:20.293Z,6.35
2022-09-12T19:51:46.903Z,4.38
2022-09-12T19:54:13.706Z,4.13
2022-09-12T19:56:40.326Z,6.85
2022-09-12T19:59:06.958Z,6.50
2022-09-12T20:01:34.878Z,5.25
2022-09-12T20:04:01.713Z,5.20
2022-09-12T20:06:28.337Z,6.43
2022-09-12T20:08:55.218Z,6.15
2022-09-12T20:11:23.557Z,7.07
2022-09-12T20:13:50.523Z,6.78
2022-09-12T20:16:21.706Z,5.50
2022-09-12T20:18:52.144Z,4.88
2022-09-12T20:21:20.107Z,4.55
2022-09-12T20:23:46.749Z,6.28
2022-09-12T20:26:13.766Z,4.88
2022-09-12T20:28:40.744Z,4.57
2022-09-12T20:31:11.437Z,5.10
2022-09-12T20:33:38.172Z,5.95
2022-09-12T20:36:09.592Z,5.88
2022-09-12T20:38:36.382Z,6.30
2022-09-12T20:41:04.106Z,4.60
2022-09-12T20:43:30.733Z,4.88
2022-09-12T20:45:57.857Z,5.57
2022-09-12T20:48:25.117Z,5.35
2022-09-12T20:50:51.683Z,5.13
2022-09-12T20:53:18.267Z,5.60
2022-09-12T20:55:51.567Z,5.00
2022-09-12T20:58:19.301Z,5.20
2022-09-12T21:00:46.391Z,5.28
2022-09-12T21:03:13.871Z,5.13
2022-09-12T21:05:42.342Z,4.60
2022-09-12T21:08:08.970Z,5.88
2022-09-12T21:10:35.614Z,6.70
2022-09-12T21:13:02.180Z,5.22
2022-09-12T21:15:28.744Z,5.40
2022-09-12T21:17:55.354Z,5.15
2022-09-12T21:20:21.954Z,3.95
2022-09-12T21:22:48.518Z,4.10
2022-09-12T21:25:15.151Z,4.10
2022-09-12T21:27:41.846Z,4.38
2022-09-12T21:30:08.731Z,4.05
2022-09-12T21:32:36.002Z,5.30
2022-09-12T21:35:04.000Z,4.70
2022-09-12T21:37:30.785Z,4.28
2022-09-12T21:39:58.814Z,4.55
2022-09-12T21:42:25.678Z,5.05
2022-09-12T21:44:52.267Z,4.97
2022-09-12T21:47:18.882Z,4.78
2022-09-12T21:49:45.619Z,4.78
2022-09-12T21:52:12.726Z,4.28
2022-09-12T21:54:39.520Z,5.28
2022-09-12T21:57:06.128Z,4.13
2022-09-12T21:59:32.694Z,4.10
2022-09-12T22:01:59.729Z,3.83
2022-09-12T22:04:26.615Z,4.75
2022-09-12T22:06:53.214Z,5.28
2022-09-12T22:09:19.825Z,4.68
2022-09-12T22:11:47.018Z,5.00
2022-09-12T22:14:13.654Z,4.50
2022-09-12T22:16:40.523Z,4.25
2022-09-12T22:19:07.117Z,4.28
2022-09-12T22:21:33.685Z,4.10
2022-09-12T22:24:18.825Z,4.20
2022-09-12T22:26:46.322Z,4.00
2022-09-12T22:29:15.680Z,5.47
2022-09-12T22:31:42.636Z,3.60
2022-09-12T22:34:09.222Z,3.85
2022-09-12T22:36:38.764Z,3.90
2022-09-12T22:39:06.197Z,4.78
2022-09-12T22:41:32.938Z,3.90
2022-09-12T22:43:59.865Z,4.35
2022-09-12T22:46:26.803Z,4.40
2022-09-12T22:48:55.735Z,4.20
2022-09-12T22:51:22.330Z,4.70
2022-09-12T22:53:49.260Z,5.22
2022-09-12T22:56:15.929Z,5.50
2022-09-12T22:58:43.576Z,5.20
2022-09-12T23:01:10.548Z,6.82
2022-09-12T23:03:37.360Z,5.97
2022-09-12T23:06:04.677Z,4.03
2022-09-12T23:08:31.264Z,3.75
2022-09-12T23:11:16.970Z,4.95
2022-09-12T23:13:45.064Z,4.00
2022-09-12T23:16:16.797Z,3.92
2022-09-12T23:18:43.455Z,4.70
2022-09-12T23:21:10.544Z,4.55
2022-09-12T23:23:37.492Z,5.10
2022-09-12T23:26:13.954Z,4.28
2022-09-12T23:28:41.581Z,5.32
2022-09-12T23:31:11.692Z,6.32
2022-09-12T23:33:38.374Z,5.80
2022-09-12T23:36:11.411Z,4.95
2022-09-12T23:38:37.997Z,4.15
2022-09-12T23:41:04.751Z,3.78
2022-09-12T23:43:31.452Z,4.82
2022-09-12T23:45:58.471Z,4.90
2022-09-12T23:48:25.380Z,4.82
2022-09-12T23:50:51.936Z,5.05
2022-09-12T23:53:18.720Z,4.97
2022-09-12T23:55:45.373Z,5.82
2022-09-12T23:58:12.008Z,4.75
